createdAt,value
2022-11-08T00:01:34.670Z,2.60
2022-11-08T00:04:23.511Z,2.23
2022-11-08T00:07:30.355Z,2.27
2022-11-08T00:10:37.203Z,2.33
2022-11-08T00:13:43.724Z,2.30
2022-11-08T00:16:33.947Z,2.80
2022-11-08T00:19:22.716Z,2.23
2022-11-08T00:22:11.591Z,2.60
2022-11-08T00:25:00.723Z,2.20
2022-11-08T00:27:49.502Z,2.27
2022-11-08T00:30:38.312Z,2.40
2022-11-08T00:33:28.470Z,2.30
2022-11-08T00:36:17.294Z,3.07
2022-11-08T00:39:06.181Z,1.70
2022-11-08T00:41:54.964Z,2.77
2022-11-08T00:44:43.754Z,2.83
2022-11-08T00:47:32.561Z,2.37
2022-11-08T00:50:22.709Z,3.20
2022-11-08T00:53:11.526Z,2.20
2022-11-08T00:56:00.878Z,2.10
2022-11-08T00:58:49.734Z,1.87
2022-11-08T01:01:38.729Z,2.17
2022-11-08T01:04:27.686Z,2.17
2022-11-08T01:07:17.844Z,2.37
2022-11-08T01:10:07.380Z,2.67
2022-11-08T01:12:56.185Z,2.43
2022-11-08T01:15:45.970Z,2.37
2022-11-08T01:18:34.986Z,2.17
2022-11-08T01:21:24.012Z,2.13
2022-11-08T01:24:15.159Z,2.30
2022-11-08T01:27:04.016Z,2.30
2022-11-08T01:29:52.874Z,2.60
2022-11-08T01:32:41.700Z,2.40
2022-11-08T01:35:31.816Z,2.43
2022-11-08T01:38:20.972Z,2.20
2022-11-08T01:41:12.963Z,1.97
2022-11-08T01:44:01.863Z,2.03
2022-11-08T01:46:50.696Z,1.80
2022-11-08T01:49:41.069Z,1.80
2022-11-08T01:52:33.499Z,1.90
2022-11-08T01:55:24.789Z,1.87
2022-11-08T01:58:17.046Z,2.20
2022-11-08T02:01:06.245Z,1.70
2022-11-08T02:03:55.104Z,1.93
2022-11-08T02:06:44.324Z,2.17
2022-11-08T02:09:33.868Z,2.63
2022-11-08T02:12:23.512Z,1.60
2022-11-08T02:15:14.232Z,2.13
2022-11-08T02:18:03.748Z,2.30
2022-11-08T02:20:55.118Z,1.87
2022-11-08T02:23:47.189Z,1.80
2022-11-08T02:26:37.003Z,1.90
2022-11-08T02:29:30.572Z,2.10
2022-11-08T02:32:19.369Z,1.60
2022-11-08T02:35:08.814Z,1.87
2022-11-08T02:37:57.690Z,1.60
2022-11-08T02:40:48.725Z,1.80
2022-11-08T02:43:37.695Z,1.60
2022-11-08T02:46:26.518Z,2.00
2022-11-08T02:49:15.337Z,2.10
2022-11-08T02:52:04.186Z,2.10
2022-11-08T02:54:52.990Z,1.97
2022-11-08T02:57:43.161Z,1.80
2022-11-08T03:00:32.433Z,1.67
2022-11-08T03:03:21.229Z,2.07
2022-11-08T03:06:10.164Z,1.47
2022-11-08T03:08:58.944Z,1.53
2022-11-08T03:11:47.759Z,2.03
2022-11-08T03:14:37.915Z,2.00
2022-11-08T03:17:26.746Z,1.70
2022-11-08T03:20:15.520Z,1.60
2022-11-08T03:23:05.633Z,1.40
2022-11-08T03:25:54.544Z,1.70
2022-11-08T03:28:43.313Z,1.60
2022-11-08T03:31:33.474Z,1.33
2022-11-08T03:34:22.260Z,1.73
2022-11-08T03:37:11.910Z,1.60
2022-11-08T03:40:00.721Z,1.80
2022-11-08T03:42:49.981Z,1.60
2022-11-08T03:45:38.992Z,2.07
2022-11-08T03:48:29.168Z,1.60
2022-11-08T03:51:17.965Z,1.80
2022-11-08T03:54:06.807Z,2.07
2022-11-08T03:56:55.596Z,1.70
2022-11-08T03:59:44.378Z,1.90
2022-11-08T04:02:33.248Z,2.40
2022-11-08T04:05:23.393Z,1.90
2022-11-08T04:08:12.188Z,1.97
2022-11-08T04:11:22.351Z,1.77
2022-11-08T04:14:28.955Z,1.60
2022-11-08T04:17:17.825Z,1.93
2022-11-08T04:20:24.915Z,1.90
2022-11-08T04:23:15.261Z,2.23
2022-11-08T04:26:05.409Z,1.73
2022-11-08T04:28:54.174Z,2.00
2022-11-08T04:31:42.956Z,2.10
2022-11-08T04:34:32.031Z,1.87
2022-11-08T04:37:20.855Z,1.83
2022-11-08T04:40:12.045Z,2.27
2022-11-08T04:43:00.854Z,1.67
2022-11-08T04:45:49.678Z,1.93
2022-11-08T04:48:38.527Z,1.90
2022-11-08T04:51:28.248Z,1.80
2022-11-08T04:54:17.015Z,1.53
2022-11-08T04:57:07.184Z,2.60
2022-11-08T04:59:56.154Z,1.93
2022-11-08T05:02:45.403Z,2.60
2022-11-08T05:05:34.203Z,2.50
2022-11-08T05:08:22.993Z,2.50
2022-11-08T05:11:12.463Z,2.30
2022-11-08T05:14:02.672Z,3.00
2022-11-08T05:16:51.473Z,2.13
2022-11-08T05:19:57.896Z,2.67
2022-11-08T05:23:04.419Z,2.13
2022-11-08T05:25:53.587Z,3.30
2022-11-08T05:28:42.375Z,2.17
2022-11-08T05:31:32.527Z,1.90
2022-11-08T05:34:21.323Z,1.70
2022-11-08T05:37:10.128Z,1.70
2022-11-08T05:39:58.887Z,1.80
2022-11-08T05:42:47.693Z,1.80
2022-11-08T05:45:36.822Z,2.33
2022-11-08T05:48:27.189Z,3.03
2022-11-08T05:51:16.547Z,2.60
2022-11-08T05:54:05.551Z,2.33
2022-11-08T05:56:54.381Z,2.70
2022-11-08T05:59:43.137Z,3.50
2022-11-08T06:02:33.053Z,2.70
2022-11-08T06:05:23.317Z,2.60
2022-11-08T06:08:12.129Z,2.10
2022-11-08T06:11:04.439Z,1.73
2022-11-08T06:13:53.715Z,2.10
2022-11-08T06:16:42.541Z,2.03
2022-11-08T06:19:31.351Z,2.40
2022-11-08T06:22:21.475Z,3.60
2022-11-08T06:25:10.778Z,2.27
2022-11-08T06:28:00.915Z,2.53
2022-11-08T06:30:49.737Z,2.67
2022-11-08T06:33:38.543Z,2.70
2022-11-08T06:36:27.314Z,2.53
2022-11-08T06:39:17.416Z,2.70
2022-11-08T06:42:06.274Z,2.63
2022-11-08T06:44:55.056Z,2.57
2022-11-08T06:47:43.831Z,2.70
2022-11-08T06:50:33.430Z,2.63
2022-11-08T06:53:22.284Z,2.50
2022-11-08T06:56:12.700Z,2.50
2022-11-08T06:59:01.481Z,2.83
2022-11-08T07:01:50.657Z,2.60
2022-11-08T07:04:39.540Z,2.63
2022-11-08T07:07:28.396Z,2.30
2022-11-08T07:10:17.248Z,3.07
2022-11-08T07:13:08.991Z,3.20
2022-11-08T07:15:58.847Z,2.40
2022-11-08T07:18:47.721Z,2.80
2022-11-08T07:21:36.615Z,2.30
2022-11-08T07:24:25.417Z,2.17
2022-11-08T07:27:14.235Z,2.60
2022-11-08T07:30:04.388Z,1.97
2022-11-08T07:32:53.315Z,2.07
2022-11-08T07:35:42.129Z,1.50
2022-11-08T07:38:31.041Z,1.30
2022-11-08T07:41:19.813Z,1.60
2022-11-08T07:44:08.617Z,1.93
2022-11-08T07:46:58.808Z,1.37
2022-11-08T07:49:47.777Z,1.30
2022-11-08T07:52:36.815Z,1.23
2022-11-08T07:55:25.915Z,1.00
2022-11-08T07:58:14.721Z,1.07
2022-11-08T08:01:04.166Z,1.10
2022-11-08T08:03:54.347Z,1.20
2022-11-08T08:06:43.116Z,1.00
2022-11-08T08:09:32.230Z,0.97
2022-11-08T08:12:21.021Z,1.33
2022-11-08T08:15:10.310Z,1.77
2022-11-08T08:18:01.348Z,1.20
2022-11-08T08:20:51.526Z,1.17
2022-11-08T08:23:40.323Z,1.17
2022-11-08T08:26:29.133Z,1.20
2022-11-08T08:29:17.927Z,1.00
2022-11-08T08:32:07.132Z,1.00
2022-11-08T08:34:55.959Z,1.00
2022-11-08T08:37:46.087Z,1.00
2022-11-08T08:40:35.204Z,0.77
2022-11-08T08:43:24.412Z,1.00
2022-11-08T08:46:13.337Z,1.40
2022-11-08T08:49:02.155Z,1.13
2022-11-08T08:51:50.936Z,0.80
2022-11-08T08:54:41.096Z,1.00
2022-11-08T08:57:29.844Z,0.90
2022-11-08T09:03:27.598Z,1.00
2022-11-08T09:06:16.413Z,1.20
2022-11-08T09:09:10.309Z,0.90
2022-11-08T09:12:00.446Z,0.97
2022-11-08T09:14:49.245Z,0.93
2022-11-08T09:17:38.069Z,1.03
2022-11-08T09:20:27.205Z,0.90
2022-11-08T09:23:17.831Z,1.00
2022-11-08T09:26:07.383Z,0.67
2022-11-08T09:28:57.571Z,0.90
2022-11-08T09:31:46.351Z,0.70
2022-11-08T09:34:35.095Z,1.33
2022-11-08T09:37:23.892Z,1.00
2022-11-08T09:43:30.671Z,1.00
2022-11-08T09:46:27.845Z,0.93
2022-11-08T09:49:19.491Z,1.00
2022-11-08T09:52:08.597Z,1.30
2022-11-08T09:55:02.910Z,1.00
2022-11-08T09:58:05.480Z,1.07
2022-11-08T10:00:54.297Z,1.10
2022-11-08T10:03:46.561Z,1.20
2022-11-08T10:06:48.382Z,1.20
2022-11-08T10:09:43.435Z,1.13
2022-11-08T10:12:35.765Z,1.17
2022-11-08T10:15:28.374Z,1.60
2022-11-08T10:18:29.748Z,0.80
2022-11-08T10:21:26.797Z,0.90
2022-11-08T10:24:16.911Z,1.17
2022-11-08T10:27:12.340Z,0.80
2022-11-08T10:30:04.014Z,1.17
2022-11-08T10:32:54.951Z,0.80
2022-11-08T10:35:45.348Z,1.27
2022-11-08T10:38:37.714Z,1.20
2022-11-08T10:41:30.179Z,1.43
2022-11-08T10:44:20.907Z,1.10
2022-11-08T10:47:14.211Z,1.00
2022-11-08T10:50:04.282Z,1.20
2022-11-08T10:52:57.497Z,0.80
2022-11-08T10:55:51.963Z,1.20
2022-11-08T10:58:42.000Z,1.23
2022-11-08T11:01:30.833Z,1.20
2022-11-08T11:04:27.543Z,1.10
2022-11-08T11:07:27.742Z,1.00
2022-11-08T11:10:19.756Z,0.90
2022-11-08T11:13:12.621Z,1.07
2022-11-08T11:16:03.116Z,0.80
2022-11-08T11:18:52.007Z,1.27
2022-11-08T11:21:41.533Z,1.00
2022-11-08T11:24:30.449Z,1.37
2022-11-08T11:27:21.849Z,2.60
2022-11-08T11:30:28.094Z,1.30
2022-11-08T11:33:24.481Z,0.87
2022-11-08T11:36:14.798Z,0.80
2022-11-08T11:39:04.852Z,1.30
2022-11-08T11:41:57.037Z,1.50
2022-11-08T11:44:49.621Z,1.07
2022-11-08T11:47:42.871Z,1.33
2022-11-08T11:50:33.697Z,1.00
2022-11-08T11:53:23.418Z,2.73
2022-11-08T11:56:30.921Z,0.70
2022-11-08T11:59:30.215Z,0.90
2022-11-08T12:02:35.171Z,1.83
2022-11-08T12:05:39.636Z,1.37
2022-11-08T12:08:34.259Z,0.90
2022-11-08T12:11:33.417Z,1.57
2022-11-08T12:14:36.168Z,0.80
2022-11-08T12:17:30.869Z,1.03
2022-11-08T12:20:27.090Z,1.03
2022-11-08T12:23:38.494Z,1.43
2022-11-08T12:26:32.369Z,1.17
2022-11-08T12:29:25.488Z,2.37
2022-11-08T12:32:19.351Z,1.10
2022-11-08T12:35:19.528Z,1.17
2022-11-08T12:38:17.978Z,1.50
2022-11-08T12:41:12.667Z,1.83
2022-11-08T12:44:12.920Z,1.00
2022-11-08T12:47:07.148Z,0.90
2022-11-08T12:50:01.765Z,1.10
2022-11-08T12:52:58.661Z,1.10
2022-11-08T12:55:49.371Z,1.33
2022-11-08T12:58:40.192Z,1.23
2022-11-08T13:01:30.436Z,1.30
2022-11-08T13:04:25.699Z,2.00
2022-11-08T13:07:26.373Z,0.77
2022-11-08T13:10:18.407Z,0.93
2022-11-08T13:13:10.561Z,1.00
2022-11-08T13:16:09.746Z,1.37
2022-11-08T13:19:01.233Z,1.80
2022-11-08T13:21:51.676Z,1.37
2022-11-08T13:24:44.841Z,1.10
2022-11-08T13:27:35.678Z,1.10
2022-11-08T13:30:35.144Z,1.57
2022-11-08T13:33:27.230Z,0.90
2022-11-08T13:36:23.603Z,0.90
2022-11-08T13:39:25.299Z,1.23
2022-11-08T13:42:30.550Z,1.03
2022-11-08T13:45:30.356Z,1.00
2022-11-08T13:48:43.079Z,0.93
2022-11-08T13:51:33.579Z,1.03
2022-11-08T13:54:49.758Z,0.90
2022-11-08T13:57:56.989Z,1.13
2022-11-08T14:00:46.971Z,1.60
2022-11-08T14:03:54.891Z,1.20
2022-11-08T14:06:50.473Z,1.27
2022-11-08T14:09:47.862Z,0.93
2022-11-08T14:12:40.591Z,1.20
2022-11-08T14:15:31.210Z,1.20
2022-11-08T14:18:25.810Z,1.20
2022-11-08T14:21:18.074Z,1.00
2022-11-08T14:24:14.163Z,1.43
2022-11-08T14:27:03.240Z,1.10
2022-11-08T14:30:00.688Z,1.30
2022-11-08T14:32:49.430Z,1.30
2022-11-08T14:35:38.171Z,1.70
2022-11-08T14:38:27.325Z,1.40
2022-11-08T14:41:18.315Z,1.20
2022-11-08T14:44:07.089Z,1.30
2022-11-08T14:46:56.092Z,1.27
2022-11-08T14:49:49.259Z,1.20
2022-11-08T14:52:38.083Z,1.17
2022-11-08T14:55:27.274Z,1.33
2022-11-08T14:58:19.686Z,1.03
2022-11-08T15:01:09.344Z,1.23
2022-11-08T15:03:59.157Z,1.40
2022-11-08T15:06:50.085Z,1.20
2022-11-08T15:09:38.982Z,1.87
2022-11-08T15:12:27.810Z,1.80
2022-11-08T15:15:22.827Z,1.20
2022-11-08T15:18:15.670Z,1.13
2022-11-08T15:21:05.834Z,1.40
2022-11-08T15:23:54.879Z,1.90
2022-11-08T15:27:01.491Z,2.23
2022-11-08T15:29:51.096Z,1.37
2022-11-08T15:32:41.945Z,1.43
2022-11-08T15:35:33.906Z,1.30
2022-11-08T15:38:28.985Z,1.00
2022-11-08T15:41:31.342Z,1.40
2022-11-08T15:44:22.850Z,1.10
2022-11-08T15:47:26.558Z,1.70
2022-11-08T15:50:19.450Z,1.47
2022-11-08T15:53:08.278Z,1.27
2022-11-08T15:55:59.076Z,1.40
2022-11-08T15:58:47.811Z,1.83
2022-11-08T16:01:41.302Z,1.10
2022-11-08T16:04:31.295Z,1.70
2022-11-08T16:07:21.377Z,2.10
2022-11-08T16:10:10.618Z,1.80
2022-11-08T16:13:00.798Z,1.53
2022-11-08T16:15:49.710Z,1.60
2022-11-08T16:18:38.488Z,2.20
2022-11-08T16:21:29.400Z,1.60
2022-11-08T16:24:19.550Z,1.03
2022-11-08T16:27:08.302Z,1.83
2022-11-08T16:29:57.036Z,1.60
2022-11-08T16:32:45.780Z,1.50
2022-11-08T16:35:34.516Z,1.73
2022-11-08T16:38:24.570Z,1.33
2022-11-08T16:41:14.724Z,1.10
2022-11-08T16:44:03.968Z,1.37
2022-11-08T16:46:54.958Z,1.50
2022-11-08T16:49:48.809Z,1.30
2022-11-08T16:52:39.785Z,1.30
2022-11-08T16:55:29.437Z,1.47
2022-11-08T16:58:19.840Z,1.50
2022-11-08T17:01:10.720Z,0.93
2022-11-08T17:03:59.586Z,1.23
2022-11-08T17:06:48.381Z,1.47
2022-11-08T17:09:37.147Z,1.40
2022-11-08T17:12:26.558Z,1.50
2022-11-08T17:15:17.774Z,1.60
2022-11-08T17:18:06.595Z,1.43
2022-11-08T17:20:55.713Z,1.30
2022-11-08T17:23:44.452Z,2.43
2022-11-08T17:26:33.223Z,1.50
2022-11-08T17:29:22.176Z,1.43
2022-11-08T17:32:12.251Z,1.40
2022-11-08T17:35:00.984Z,1.73
2022-11-08T17:37:49.772Z,2.00
2022-11-08T17:40:38.528Z,1.50
2022-11-08T17:43:27.929Z,1.43
2022-11-08T17:46:16.681Z,1.80
2022-11-08T17:49:07.023Z,2.40
2022-11-08T17:51:55.774Z,2.03
2022-11-08T17:54:46.847Z,2.50
2022-11-08T17:57:37.800Z,1.77
2022-11-08T18:00:26.573Z,1.97
2022-11-08T18:03:15.805Z,1.97
2022-11-08T18:06:07.486Z,1.53
2022-11-08T18:08:57.008Z,2.30
2022-11-08T18:11:47.808Z,1.90
2022-11-08T18:14:36.567Z,1.87
2022-11-08T18:17:26.924Z,1.40
2022-11-08T18:20:15.710Z,1.27
2022-11-08T18:23:05.970Z,1.00
2022-11-08T18:25:56.066Z,2.10
2022-11-08T18:28:45.507Z,1.27
2022-11-08T18:31:34.752Z,1.30
2022-11-08T18:34:23.502Z,1.30
2022-11-08T18:37:12.347Z,1.37
2022-11-08T18:40:02.534Z,1.27
2022-11-08T18:42:51.429Z,1.60
2022-11-08T18:45:40.278Z,1.30
2022-11-08T18:48:29.026Z,1.40
2022-11-08T18:51:18.513Z,1.10
2022-11-08T18:54:07.337Z,1.37
2022-11-08T18:56:57.458Z,0.97
2022-11-08T18:59:46.326Z,1.10
2022-11-08T19:02:35.102Z,1.40
2022-11-08T19:05:24.297Z,1.47
2022-11-08T19:08:13.065Z,1.37
2022-11-08T19:11:02.879Z,0.97
2022-11-08T19:13:53.061Z,1.40
2022-11-08T19:16:41.896Z,1.40
2022-11-08T19:19:30.651Z,1.30
2022-11-08T19:22:19.469Z,1.60
2022-11-08T19:25:08.414Z,0.90
2022-11-08T19:27:58.670Z,1.13
2022-11-08T19:30:51.693Z,1.40
2022-11-08T19:33:40.489Z,1.00
2022-11-08T19:36:31.322Z,1.70
2022-11-08T19:39:20.160Z,1.60
2022-11-08T19:42:08.928Z,1.50
2022-11-08T19:44:58.187Z,1.43
2022-11-08T19:47:50.376Z,0.97
2022-11-08T19:50:42.938Z,1.53
2022-11-08T19:53:31.994Z,1.53
2022-11-08T19:56:29.184Z,1.37
2022-11-08T19:59:26.772Z,1.60
2022-11-08T20:02:15.595Z,1.53
2022-11-08T20:05:05.898Z,1.37
2022-11-08T20:07:54.667Z,1.57
2022-11-08T20:10:43.424Z,1.57
2022-11-08T20:13:32.210Z,1.30
2022-11-08T20:16:22.363Z,1.40
2022-11-08T20:19:12.304Z,1.50
2022-11-08T20:22:02.400Z,1.57
2022-11-08T20:24:51.241Z,1.10
2022-11-08T20:27:40.023Z,1.40
2022-11-08T20:30:28.894Z,1.23
2022-11-08T20:33:17.643Z,1.53
2022-11-08T20:36:07.028Z,1.37
2022-11-08T20:39:02.210Z,1.90
2022-11-08T20:41:54.294Z,1.33
2022-11-08T20:44:43.060Z,1.27
2022-11-08T20:47:31.983Z,1.60
2022-11-08T20:50:20.707Z,1.23
2022-11-08T20:53:09.465Z,1.70
2022-11-08T20:55:59.831Z,1.47
2022-11-08T20:58:49.343Z,1.10
2022-11-08T21:01:39.171Z,1.13
2022-11-08T21:04:27.929Z,1.27
2022-11-08T21:08:01.372Z,1.13
2022-11-08T21:10:42.272Z,1.67
2022-11-08T21:13:34.248Z,1.50
2022-11-08T21:16:38.186Z,1.57
2022-11-08T21:19:31.936Z,1.33
2022-11-08T21:22:20.820Z,1.20
2022-11-08T21:25:10.028Z,1.10
2022-11-08T21:27:59.774Z,1.50
2022-11-08T21:30:49.881Z,1.57
2022-11-08T21:33:39.312Z,1.83
2022-11-08T21:36:29.029Z,1.03
2022-11-08T21:39:17.897Z,2.20
2022-11-08T21:42:06.683Z,1.83
2022-11-08T21:44:55.525Z,1.70
2022-11-08T21:47:49.944Z,1.77
2022-11-08T21:50:39.104Z,1.57
2022-11-08T21:53:27.948Z,2.13
2022-11-08T21:56:16.736Z,2.10
2022-11-08T21:59:05.496Z,1.50
2022-11-08T22:01:54.291Z,2.17
2022-11-08T22:04:44.442Z,2.10
2022-11-08T22:07:33.231Z,2.77
2022-11-08T22:10:21.999Z,2.17
2022-11-08T22:13:10.777Z,3.00
2022-11-08T22:15:59.661Z,2.20
2022-11-08T22:19:05.588Z,1.90
2022-11-08T22:21:56.320Z,2.10
2022-11-08T22:24:45.232Z,2.00
2022-11-08T22:27:34.198Z,1.97
2022-11-08T22:30:23.011Z,2.23
2022-11-08T22:33:11.761Z,2.50
2022-11-08T22:36:00.611Z,3.07
2022-11-08T22:38:50.718Z,2.80
2022-11-08T22:41:39.535Z,2.50
2022-11-08T22:44:28.358Z,2.00
2022-11-08T22:47:17.221Z,1.90
2022-11-08T22:50:06.504Z,1.83
2022-11-08T22:52:55.311Z,1.53
2022-11-08T22:55:46.471Z,1.70
2022-11-08T22:58:35.429Z,2.07
2022-11-08T23:01:25.381Z,2.00
2022-11-08T23:04:14.186Z,1.50
2022-11-08T23:07:03.107Z,1.47
2022-11-08T23:09:51.959Z,2.00
2022-11-08T23:12:59.558Z,1.30
2022-11-08T23:16:05.950Z,1.40
2022-11-08T23:19:08.640Z,1.50
2022-11-08T23:22:15.115Z,1.20
2022-11-08T23:25:04.146Z,1.17
2022-11-08T23:28:11.924Z,1.50
2022-11-08T23:31:20.945Z,1.20
2022-11-08T23:34:09.706Z,0.90
2022-11-08T23:36:58.466Z,1.23
2022-11-08T23:40:04.175Z,1.00
2022-11-08T23:43:24.735Z,1.40
2022-11-08T23:46:13.923Z,1.00
2022-11-08T23:49:02.804Z,0.67
2022-11-08T23:51:51.567Z,0.90
2022-11-08T23:54:40.393Z,1.03
2022-11-08T23:57:29.185Z,1.37
